Time;durP1;ratioP1;P1;durP2;ratioP2;P2;SDS_P1;SDS_P2;PMS_P1;PMS_P2;Temp;Humidity;BMP_temperature;BMP_pressure;BME280_temperature;BME280_humidity;BME280_pressure;Samples;Min_cycle;Max_cycle;Signal;HPM_P1;HPM_P2
2023/08/05 00:00:24;;;;;;;0.57;0.57;;;;;;;28.37;60.69;98848.41;5040980;28;20220;-65
2023/08/05 00:02:51;;;;;;;0.93;0.93;;;;;;;28.36;60.68;98849.38;5041983;28;20208;-64
2023/08/05 00:05:18;;;;;;;0.90;0.90;;;;;;;28.22;60.93;98848.28;5046790;28;20201;-64
2023/08/05 00:07:45;;;;;;;0.80;0.80;;;;;;;28.15;61.15;98842.88;5049919;28;20203;-64
2023/08/05 00:10:13;;;;;;;0.70;0.70;;;;;;;28.01;61.55;98843.56;5040520;28;20224;-65
2023/08/05 00:12:39;;;;;;;1.00;1.00;;;;;;;27.77;62.33;98832.28;5049923;28;20197;-64
2023/08/05 00:15:08;;;;;;;0.73;0.73;;;;;;;27.69;62.82;98834.94;5037089;28;20209;-64
2023/08/05 00:17:34;;;;;;;0.83;0.83;;;;;;;27.59;63.32;98832.50;5041638;28;20632;-64
2023/08/05 00:20:01;;;;;;;1.03;0.93;;;;;;;27.53;64.21;98833.97;5048840;28;20266;-64
2023/08/05 00:22:28;;;;;;;1.07;0.97;;;;;;;27.52;63.93;98828.88;5042344;28;20668;-64
2023/08/05 00:24:55;;;;;;;0.87;0.87;;;;;;;27.56;64.15;98830.22;5040473;28;20208;-64
2023/08/05 00:27:23;;;;;;;0.93;0.93;;;;;;;27.60;63.45;98836.75;5046798;28;20200;-64
2023/08/05 00:29:49;;;;;;;0.83;0.83;;;;;;;27.58;64.08;98820.31;5049129;28;20197;-64
2023/08/05 00:32:16;;;;;;;0.60;0.60;;;;;;;27.67;63.98;98831.66;5044427;28;20197;-64
2023/08/05 00:34:43;;;;;;;1.30;1.20;;;;;;;27.64;64.06;98827.53;5047129;28;20204;-64
2023/08/05 00:37:10;;;;;;;2.50;1.10;;;;;;;27.66;63.60;98825.53;5046042;28;20193;-63
2023/08/05 00:39:36;;;;;;;1.00;1.00;;;;;;;27.66;64.03;98825.53;5039639;28;20275;-64
2023/08/05 00:42:03;;;;;;;1.00;1.00;;;;;;;27.66;64.22;98815.00;5042870;28;20738;-64
2023/08/05 00:44:31;;;;;;;1.33;0.80;;;;;;;27.70;64.14;98821.59;5040152;28;20197;-64
2023/08/05 00:46:58;;;;;;;2.70;0.90;;;;;;;27.70;64.44;98811.06;5043022;28;20623;-64
2023/08/05 00:49:26;;;;;;;0.70;0.70;;;;;;;27.77;64.47;98817.31;5033339;28;20209;-64
2023/08/05 00:51:54;;;;;;;5.03;0.93;;;;;;;27.74;64.42;98817.66;5037010;28;20236;-64
2023/08/05 00:54:22;;;;;;;1.30;1.23;;;;;;;27.64;64.46;98812.56;5036642;28;20201;-64
2023/08/05 00:56:49;;;;;;;2.00;0.90;;;;;;;27.63;64.79;98812.72;5041948;28;20204;-64
2023/08/05 00:59:18;;;;;;;1.23;1.13;;;;;;;27.61;65.39;98812.06;5044573;28;20645;-64
2023/08/05 01:01:46;;;;;;;0.87;0.87;;;;;;;27.64;65.33;98806.47;5036694;28;20201;-64
2023/08/05 01:04:13;;;;;;;1.20;1.20;;;;;;;27.64;65.61;98803.84;5039389;28;20693;-64
2023/08/05 01:06:41;;;;;;;1.13;0.97;;;;;;;27.56;66.26;98809.13;5036129;28;20204;-65
2023/08/05 01:09:07;;;;;;;0.90;0.90;;;;;;;27.57;66.47;98805.50;5040732;28;20232;-64
2023/08/05 01:11:34;;;;;;;0.80;0.80;;;;;;;27.53;66.73;98814.72;5046167;28;20220;-63
2023/08/05 01:14:01;;;;;;;0.80;0.80;;;;;;;27.49;67.00;98809.00;5046780;28;20713;-64
2023/08/05 01:16:28;;;;;;;1.00;1.00;;;;;;;27.46;67.92;98803.22;5048963;28;20239;-64
2023/08/05 01:18:58;;;;;;;0.90;0.90;;;;;;;27.49;67.81;98805.53;5042905;28;20215;-64
2023/08/05 01:21:34;;;;;;;1.00;1.00;;;;;;;27.50;67.13;98805.34;5045946;28;20239;-64
2023/08/05 01:24:11;;;;;;;0.80;0.80;;;;;;;27.47;68.07;98803.06;5036992;28;20227;-64
2023/08/05 01:26:40;;;;;;;1.03;1.03;;;;;;;27.28;68.60;98786.75;5035019;28;20200;-64
2023/08/05 01:29:08;;;;;;;1.63;0.90;;;;;;;27.37;68.95;98796.28;5049228;28;20300;-64
2023/08/05 01:31:36;;;;;;;1.00;1.00;;;;;;;27.38;68.72;98787.41;5037076;28;20212;-64
2023/08/05 01:34:03;;;;;;;1.10;1.00;;;;;;;27.35;69.23;98795.63;5045079;28;20235;-64
2023/08/05 01:36:31;;;;;;;0.77;0.77;;;;;;;27.13;70.49;98771.66;5036171;28;20197;-64
2023/08/05 01:38:57;;;;;;;1.57;1.47;;;;;;;27.18;71.03;98778.22;5046531;28;20201;-64
2023/08/05 01:41:25;;;;;;;2.50;0.90;;;;;;;27.19;71.11;98785.13;5036446;28;20201;-63
2023/08/05 01:43:53;;;;;;;1.10;0.80;;;;;;;27.14;72.01;98783.81;5044131;28;20193;-64
2023/08/05 01:46:19;;;;;;;0.67;0.67;;;;;;;27.10;72.84;98782.53;5039628;28;20200;-64
2023/08/05 01:48:46;;;;;;;0.70;0.70;;;;;;;27.08;73.58;98784.47;5044611;28;20589;-63
2023/08/05 01:51:13;;;;;;;1.33;0.90;;;;;;;27.05;73.20;98790.06;5042655;28;20700;-64
2023/08/05 01:53:40;;;;;;;1.20;1.10;;;;;;;26.93;74.16;98772.97;5034091;28;20248;-65
2023/08/05 01:56:06;;;;;;;0.87;0.87;;;;;;;27.01;74.95;98793.22;5041175;28;20630;-64
2023/08/05 01:58:33;;;;;;;1.13;0.97;;;;;;;27.00;74.90;98792.41;5038471;28;20220;-64
2023/08/05 02:01:01;;;;;;;1.10;1.10;;;;;;;26.91;76.27;98798.66;5045517;28;20196;-64
2023/08/05 02:03:28;;;;;;;1.53;0.97;;;;;;;26.91;76.53;98798.66;5036999;28;20613;-64
2023/08/05 02:05:55;;;;;;;0.80;0.80;;;;;;;26.90;76.86;98799.63;5044606;28;20209;-63
2023/08/05 02:08:21;;;;;;;0.90;0.90;;;;;;;26.86;77.91;98803.56;5041568;28;21438;-64
2023/08/05 02:10:48;;;;;;;1.00;1.00;;;;;;;26.84;78.60;98797.66;5041463;28;20235;-64
2023/08/05 02:13:16;;;;;;;0.70;0.70;;;;;;;26.81;79.06;98782.19;5047636;28;20203;-64
2023/08/05 02:15:43;;;;;;;1.60;0.90;;;;;;;26.79;80.13;98794.63;5040940;28;20233;-64
2023/08/05 02:18:11;;;;;;;1.10;1.10;;;;;;;26.73;80.26;98795.28;5040518;28;20232;-65
2023/08/05 02:20:38;;;;;;;2.00;1.17;;;;;;;26.69;81.43;98793.97;5035859;28;20212;-64
2023/08/05 02:23:05;;;;;;;0.97;0.97;;;;;;;26.70;81.81;98789.53;5037133;28;20205;-64
2023/08/05 02:25:31;;;;;;;0.60;0.60;;;;;;;26.66;81.85;98785.63;5038936;28;20197;-65
2023/08/05 02:27:58;;;;;;;1.03;1.00;;;;;;;26.62;83.13;98785.13;5035038;28;20210;-65
2023/08/05 02:30:25;;;;;;;1.03;0.97;;;;;;;26.54;84.54;98791.16;5036384;28;20599;-65
2023/08/05 02:32:52;;;;;;;1.13;1.13;;;;;;;26.48;85.46;98785.75;5038339;28;20219;-65
2023/08/05 02:35:20;;;;;;;1.10;1.10;;;;;;;26.42;87.11;98796.91;5043940;28;20197;-63
2023/08/05 02:37:46;;;;;;;2.33;1.20;;;;;;;26.33;87.96;98795.25;5046099;28;20203;-64
2023/08/05 02:40:13;;;;;;;1.17;1.17;;;;;;;26.27;89.12;98809.03;5037035;28;20205;-63
2023/08/05 02:42:40;;;;;;;0.87;0.87;;;;;;;26.25;89.62;98810.97;5040896;28;20216;-63
2023/08/05 02:45:08;;;;;;;1.10;1.10;;;;;;;26.21;90.57;98805.22;5036896;28;20620;-64
2023/08/05 02:47:34;;;;;;;0.97;0.97;;;;;;;26.26;90.57;98807.38;5035450;28;20205;-64
2023/08/05 02:50:01;;;;;;;0.90;0.83;;;;;;;26.21;91.95;98810.47;5036551;28;20653;-64
2023/08/05 02:52:29;;;;;;;1.00;0.83;;;;;;;26.20;92.29;98808.00;5047598;28;20312;-64
2023/08/05 02:54:56;;;;;;;1.43;1.13;;;;;;;26.22;92.32;98806.03;5043892;28;20249;-64
2023/08/05 02:57:23;;;;;;;0.90;0.90;;;;;;;26.21;92.32;98809.63;5043161;28;20211;-64
2023/08/05 02:59:50;;;;;;;0.93;0.90;;;;;;;26.16;93.23;98809.28;5039573;28;20196;-64
2023/08/05 03:02:16;;;;;;;2.23;1.03;;;;;;;26.17;93.71;98803.06;5047390;28;20258;-64
2023/08/05 03:04:43;;;;;;;1.43;0.97;;;;;;;26.17;94.01;98798.66;5040861;28;20224;-64
2023/08/05 03:07:10;;;;;;;0.87;0.80;;;;;;;26.14;94.29;98798.09;5027563;28;20220;-64
2023/08/05 03:09:38;;;;;;;0.63;0.63;;;;;;;26.09;95.08;98806.47;5035099;28;20678;-64
2023/08/05 03:12:08;;;;;;;0.90;0.90;;;;;;;26.03;96.11;98797.41;5040535;28;20216;-63
2023/08/05 03:14:35;;;;;;;1.27;1.27;;;;;;;26.03;96.09;98796.59;5041888;28;20208;-64
2023/08/05 03:17:02;;;;;;;0.77;0.77;;;;;;;26.02;96.60;98800.19;5053419;28;20280;-64
2023/08/05 03:19:28;;;;;;;0.90;0.90;;;;;;;25.95;97.36;98805.25;5050405;28;20196;-64
2023/08/05 03:21:55;;;;;;;0.87;0.87;;;;;;;25.93;98.62;98806.38;5054379;28;20632;-64
2023/08/05 03:24:22;;;;;;;1.30;1.20;;;;;;;25.92;98.79;98815.22;5054431;28;20592;-64
2023/08/05 03:26:50;;;;;;;0.97;0.97;;;;;;;25.87;99.53;98813.09;5054157;28;20197;-63
2023/08/05 03:29:17;;;;;;;2.53;1.17;;;;;;;25.87;100.00;98805.22;5053325;28;20208;-64
2023/08/05 03:31:44;;;;;;;1.10;1.07;;;;;;;25.70;100.00;98800.84;5053913;28;20270;-64
2023/08/05 03:34:10;;;;;;;0.77;0.77;;;;;;;25.55;100.00;98794.56;5054193;28;20205;-64
2023/08/05 03:36:37;;;;;;;0.97;0.97;;;;;;;25.54;100.00;98792.91;5054281;28;20211;-64
2023/08/05 03:39:04;;;;;;;0.50;0.50;;;;;;;25.46;100.00;98777.09;5053942;28;20205;-64
2023/08/05 03:41:31;;;;;;;0.90;0.90;;;;;;;25.50;100.00;98804.69;5054191;28;20235;-65
2023/08/05 03:44:01;;;;;;;0.90;0.90;;;;;;;25.36;100.00;98797.34;5054212;28;20197;-64
2023/08/05 03:46:28;;;;;;;0.87;0.83;;;;;;;25.38;100.00;98787.50;5053402;28;20197;-65
2023/08/05 03:48:54;;;;;;;0.83;0.83;;;;;;;25.32;100.00;98786.34;5053905;28;20201;-64
2023/08/05 03:51:21;;;;;;;1.33;1.00;;;;;;;25.29;100.00;98775.31;5053390;28;20221;-65
2023/08/05 03:53:48;;;;;;;0.90;0.90;;;;;;;25.28;100.00;98784.16;5053981;28;20193;-63
2023/08/05 03:56:18;;;;;;;0.90;0.90;;;;;;;25.21;100.00;98777.88;5054100;28;20207;-63
2023/08/05 03:58:46;;;;;;;0.87;0.87;;;;;;;25.17;100.00;98768.69;5053830;28;20204;-64
2023/08/05 04:01:17;;;;;;;1.53;1.43;;;;;;;25.26;100.00;98780.88;5053672;28;20791;-64
2023/08/05 04:03:43;;;;;;;0.80;0.80;;;;;;;25.27;100.00;98777.25;5053935;28;20220;-64
2023/08/05 04:06:11;;;;;;;1.07;1.07;;;;;;;25.27;100.00;98785.13;5053393;28;20201;-65
2023/08/05 04:08:38;;;;;;;1.50;1.30;;;;;;;25.24;100.00;98777.56;5053531;28;20201;-64
2023/08/05 04:11:06;;;;;;;4.20;1.23;;;;;;;25.23;100.00;98791.69;5053218;28;20228;-65
2023/08/05 04:13:34;;;;;;;0.70;0.70;;;;;;;25.14;100.00;98790.00;5052806;28;20201;-65
2023/08/05 04:16:03;;;;;;;1.47;0.90;;;;;;;25.24;100.00;98798.56;5052331;28;20558;-65
2023/08/05 04:18:31;;;;;;;0.80;0.80;;;;;;;25.28;100.00;98789.41;5039895;28;20204;-64
2023/08/05 04:20:58;;;;;;;0.93;0.90;;;;;;;25.26;100.00;98791.38;5038976;28;20205;-63
2023/08/05 04:23:26;;;;;;;0.83;0.83;;;;;;;25.32;100.00;98790.75;5040051;28;20204;-64
2023/08/05 04:25:52;;;;;;;0.83;0.83;;;;;;;25.41;100.00;98798.53;5040629;28;20229;-64
2023/08/05 04:28:19;;;;;;;0.77;0.67;;;;;;;25.47;100.00;98805.78;5043535;28;20244;-69
2023/08/05 04:30:48;;;;;;;5.10;1.20;;;;;;;25.53;100.00;98809.63;5041312;28;20204;-62
2023/08/05 04:33:15;;;;;;;1.47;1.37;;;;;;;25.69;100.00;98809.69;5036178;28;20315;-64
2023/08/05 04:35:47;;;;;;;1.50;1.47;;;;;;;25.72;100.00;98804.13;5038175;28;20582;-62
2023/08/05 04:38:14;;;;;;;4.97;1.53;;;;;;;25.86;100.00;98808.81;5041299;28;20237;-63
2023/08/05 04:40:41;;;;;;;1.00;1.00;;;;;;;25.90;100.00;98802.28;5040150;28;20204;-62
2023/08/05 04:43:08;;;;;;;0.83;0.83;;;;;;;26.07;100.00;98806.59;5040687;28;20200;-62
2023/08/05 04:45:35;;;;;;;1.67;1.57;;;;;;;26.08;100.00;98804.78;5041036;28;20204;-63
2023/08/05 04:48:04;;;;;;;1.20;0.97;;;;;;;26.16;100.00;98806.63;5036686;28;20213;-63
2023/08/05 04:50:31;;;;;;;1.33;1.03;;;;;;;26.19;100.00;98807.19;5039762;28;20687;-63
2023/08/05 04:52:59;;;;;;;1.53;0.97;;;;;;;26.19;100.00;98806.34;5035530;28;20221;-63
2023/08/05 04:55:25;;;;;;;1.63;1.20;;;;;;;26.23;100.00;98807.69;5042658;28;20258;-63
2023/08/05 04:57:53;;;;;;;1.63;1.27;;;;;;;26.29;100.00;98817.56;5044151;28;20204;-62
2023/08/05 05:00:20;;;;;;;2.27;1.27;;;;;;;26.44;100.00;98808.06;5039450;28;20695;-63
2023/08/05 05:02:48;;;;;;;1.60;1.20;;;;;;;26.47;100.00;98802.47;5034143;28;20650;-64
2023/08/05 05:05:15;;;;;;;2.67;1.03;;;;;;;26.38;100.00;98790.31;5041352;28;20201;-63
2023/08/05 05:07:42;;;;;;;1.70;1.23;;;;;;;26.42;100.00;98804.78;5034270;28;20643;-64
2023/08/05 05:10:10;;;;;;;9.50;1.33;;;;;;;26.42;100.00;98797.72;5035968;28;20680;-64
2023/08/05 05:12:37;;;;;;;5.30;1.77;;;;;;;26.48;100.00;98801.50;5043955;28;20224;-64
2023/08/05 05:15:04;;;;;;;1.80;1.70;;;;;;;26.69;100.00;98803.69;5037496;28;20208;-64
2023/08/05 05:17:34;;;;;;;3.07;1.50;;;;;;;26.81;100.00;98807.66;5049244;28;20228;-62
2023/08/05 05:20:01;;;;;;;2.47;1.40;;;;;;;26.97;100.00;98805.06;5050933;28;20224;-61
2023/08/05 05:22:28;;;;;;;5.33;1.27;;;;;;;27.06;100.00;98807.50;5050636;28;20204;-61
2023/08/05 05:24:55;;;;;;;2.37;2.17;;;;;;;27.28;100.00;98803.38;5051329;28;20272;-62
2023/08/05 05:27:23;;;;;;;4.00;1.40;;;;;;;27.34;100.00;98800.06;5051075;28;20212;-63
2023/08/05 05:29:50;;;;;;;2.13;1.03;;;;;;;27.53;100.00;98804.19;5051052;28;20205;-62
2023/08/05 05:32:17;;;;;;;1.90;1.80;;;;;;;27.63;100.00;98810.09;5050124;28;20213;-62
2023/08/05 05:34:43;;;;;;;2.30;1.60;;;;;;;27.63;100.00;98810.09;5050864;28;20568;-62
2023/08/05 05:37:10;;;;;;;1.10;1.10;;;;;;;27.78;100.00;98807.59;5050558;28;20244;-62
2023/08/05 05:39:39;;;;;;;2.13;1.80;;;;;;;27.90;99.38;98800.97;5051221;28;20204;-62
2023/08/05 05:42:06;;;;;;;3.63;1.67;;;;;;;27.97;98.98;98792.22;5050940;28;20592;-65
2023/08/05 05:44:35;;;;;;;1.77;1.67;;;;;;;28.01;98.79;98806.66;5051539;28;20674;-63
2023/08/05 05:47:02;;;;;;;1.60;1.30;;;;;;;28.01;98.19;98792.69;5051034;28;20295;-62
2023/08/05 05:49:29;;;;;;;1.37;1.27;;;;;;;28.10;97.93;98791.69;5051044;28;20203;-64
2023/08/05 05:51:56;;;;;;;2.83;1.77;;;;;;;28.17;96.26;98793.44;5051084;28;20455;-69
2023/08/05 05:54:23;;;;;;;2.00;1.13;;;;;;;28.09;96.87;98784.75;5049286;28;20208;-73
2023/08/05 05:56:50;;;;;;;1.50;1.40;;;;;;;28.23;96.66;98780.59;5050239;28;20208;-76
2023/08/05 05:59:17;;;;;;;2.08;1.92;;;;;;;28.26;95.30;98782.88;5048895;28;20433;-63
2023/08/05 06:01:45;;;;;;;1.63;1.53;;;;;;;28.45;94.71;98777.16;5051144;28;20200;-67
2023/08/05 06:04:12;;;;;;;2.27;1.60;;;;;;;28.55;94.66;98780.38;5050912;28;20262;-66
2023/08/05 06:06:38;;;;;;;1.40;1.40;;;;;;;28.67;92.78;98781.66;5045919;28;20203;-67
2023/08/05 06:09:07;;;;;;;2.50;1.10;;;;;;;28.78;92.15;98781.25;5050828;28;20672;-67
2023/08/05 06:11:33;;;;;;;2.77;1.47;;;;;;;28.75;91.74;98776.31;5050311;28;20665;-67
2023/08/05 06:14:00;;;;;;;1.93;1.73;;;;;;;28.61;93.62;98766.50;5051533;28;20193;-67
2023/08/05 06:16:27;;;;;;;1.83;1.73;;;;;;;28.61;93.86;98763.84;5044983;28;20602;-67
2023/08/05 06:18:55;;;;;;;1.60;1.50;;;;;;;28.88;91.51;98759.88;5049374;28;20617;-67
2023/08/05 06:21:22;;;;;;;1.70;1.60;;;;;;;29.01;91.13;98765.38;5051079;28;20200;-66
2023/08/05 06:23:49;;;;;;;4.70;1.27;;;;;;;29.12;92.23;98768.41;5051104;28;20212;-67
2023/08/05 06:26:16;;;;;;;1.80;1.37;;;;;;;29.18;88.45;98772.97;5051180;28;20205;-67
2023/08/05 06:28:42;;;;;;;1.53;1.50;;;;;;;29.17;88.90;98776.63;5050904;28;20204;-67
2023/08/05 06:31:09;;;;;;;1.70;1.60;;;;;;;29.13;88.34;98748.94;5048894;28;20450;-65
2023/08/05 06:33:36;;;;;;;1.10;1.10;;;;;;;29.37;88.19;98757.66;5049012;28;20220;-66
2023/08/05 06:36:05;;;;;;;1.10;1.10;;;;;;;29.19;88.07;98765.88;5047969;28;20204;-65
2023/08/05 06:38:31;;;;;;;0.93;0.90;;;;;;;29.21;86.96;98770.97;5049024;28;20203;-65
2023/08/05 06:40:58;;;;;;;1.73;1.63;;;;;;;29.50;86.37;98771.03;5048795;28;20208;-66
2023/08/05 06:43:25;;;;;;;0.80;0.80;;;;;;;29.80;83.90;98772.66;5048539;28;20577;-71
2023/08/05 06:45:52;;;;;;;1.35;1.25;;;;;;;29.96;81.74;98766.38;5048767;28;20208;-74
2023/08/05 06:48:19;;;;;;;1.85;1.15;;;;;;;29.73;82.64;98766.47;5048826;28;20211;-68
2023/08/05 06:50:45;;;;;;;1.15;1.13;;;;;;;29.83;83.74;98761.75;5048030;28;20497;-67
2023/08/05 06:53:14;;;;;;;0.93;0.93;;;;;;;29.61;84.62;98758.19;5047429;28;20224;-67
2023/08/05 06:55:40;;;;;;;1.63;1.10;;;;;;;29.60;84.27;98739.88;5048489;28;20211;-67
2023/08/05 06:58:07;;;;;;;0.70;0.70;;;;;;;29.89;83.70;98741.72;5048619;28;20647;-67
2023/08/05 07:00:34;;;;;;;2.55;1.10;;;;;;;29.89;84.37;98747.81;5048827;28;20284;-67
2023/08/05 07:03:02;;;;;;;1.02;1.02;;;;;;;29.93;81.56;98740.31;5048779;28;20193;-67
2023/08/05 07:05:29;;;;;;;1.00;1.00;;;;;;;30.19;81.44;98736.16;5045223;28;20447;-67
2023/08/05 07:07:55;;;;;;;7.68;1.20;;;;;;;30.30;80.75;98732.22;5048483;28;20208;-67
2023/08/05 07:10:24;;;;;;;1.27;1.02;;;;;;;30.28;78.67;98730.75;5049893;28;20288;-67
2023/08/05 07:12:51;;;;;;;0.95;0.95;;;;;;;30.34;77.63;98724.72;5050071;28;20216;-67
2023/08/05 07:15:17;;;;;;;0.90;0.90;;;;;;;30.38;78.29;98725.97;5050279;28;20201;-68
2023/08/05 07:17:44;;;;;;;1.45;1.38;;;;;;;30.49;78.61;98726.34;5050106;28;20655;-67
2023/08/05 07:20:12;;;;;;;1.00;0.90;;;;;;;30.52;79.13;98725.13;5048336;28;20572;-66
2023/08/05 07:22:38;;;;;;;0.70;0.70;;;;;;;30.56;73.38;98736.97;5035052;28;20204;-67
2023/08/05 07:25:06;;;;;;;0.75;0.75;;;;;;;30.64;74.08;98724.44;5049505;28;20208;-67
2023/08/05 07:27:34;;;;;;;1.27;0.95;;;;;;;30.90;72.88;98728.31;5050516;28;20197;-67
2023/08/05 07:30:01;;;;;;;0.93;0.93;;;;;;;31.17;71.74;98728.34;5043308;28;20211;-68
2023/08/05 07:32:30;;;;;;;0.90;0.90;;;;;;;31.36;72.12;98718.06;5049685;28;20216;-67
2023/08/05 07:34:57;;;;;;;1.90;0.93;;;;;;;31.58;70.73;98724.94;5043990;28;20233;-66
2023/08/05 07:37:24;;;;;;;0.95;0.77;;;;;;;31.55;71.06;98734.09;5037765;28;20205;-68
2023/08/05 07:39:51;;;;;;;1.02;1.02;;;;;;;31.40;71.54;98729.91;5049491;28;20201;-68
2023/08/05 07:42:22;;;;;;;1.13;1.13;;;;;;;31.56;72.46;98721.69;5041531;28;20209;-67
2023/08/05 07:44:52;;;;;;;1.00;1.00;;;;;;;31.79;71.57;98711.59;5044712;28;20215;-68
2023/08/05 07:47:19;;;;;;;1.45;0.93;;;;;;;31.95;70.99;98719.19;5046181;28;20208;-67
2023/08/05 07:49:46;;;;;;;0.82;0.82;;;;;;;31.97;69.57;98706.53;5040399;28;20332;-67
2023/08/05 07:52:12;;;;;;;0.85;0.85;;;;;;;32.16;67.73;98726.22;5050004;28;20550;-67
2023/08/05 07:54:40;;;;;;;7.53;1.10;;;;;;;31.89;69.76;98722.63;5039080;28;20200;-67
2023/08/05 07:57:08;;;;;;;0.80;0.80;;;;;;;31.84;70.20;98711.81;5049722;28;20220;-67
2023/08/05 07:59:35;;;;;;;1.27;1.17;;;;;;;32.00;68.76;98715.94;5050251;28;20581;-67
2023/08/05 08:02:05;;;;;;;1.08;1.02;;;;;;;31.78;68.00;98707.28;5046398;28;20697;-68
2023/08/05 08:04:34;;;;;;;1.23;1.23;;;;;;;32.06;69.48;98705.38;5053359;28;20208;-67
2023/08/05 08:07:01;;;;;;;1.15;1.05;;;;;;;32.16;66.98;98703.16;5042307;28;20201;-67
2023/08/05 08:09:27;;;;;;;2.10;0.90;;;;;;;32.05;66.32;98709.03;5047381;28;20704;-67
2023/08/05 08:11:54;;;;;;;0.95;0.95;;;;;;;32.04;66.67;98696.81;5051053;28;20717;-67
2023/08/05 08:14:21;;;;;;;4.10;0.98;;;;;;;32.18;66.24;98698.47;5046458;28;20626;-67
2023/08/05 08:16:48;;;;;;;2.15;1.08;;;;;;;32.34;64.67;98697.28;5051063;28;20236;-67
2023/08/05 08:19:18;;;;;;;1.75;1.65;;;;;;;32.45;65.51;98685.25;5036028;28;20202;-67
2023/08/05 08:21:45;;;;;;;1.00;1.00;;;;;;;32.70;66.30;98688.94;5045862;28;20284;-67
2023/08/05 08:24:12;;;;;;;1.10;1.05;;;;;;;32.87;63.49;98692.81;5038152;28;20198;-66
2023/08/05 08:26:39;;;;;;;1.35;1.20;;;;;;;32.99;61.66;98685.84;5043117;28;20653;-67
2023/08/05 08:29:05;;;;;;;0.77;0.77;;;;;;;33.05;63.03;98684.25;5042512;28;20605;-67
2023/08/05 08:31:33;;;;;;;3.08;0.93;;;;;;;32.82;63.68;98679.38;5036307;28;20205;-67
2023/08/05 08:34:00;;;;;;;0.90;0.90;;;;;;;32.40;62.06;98645.25;5043921;28;20768;-67
2023/08/05 08:36:28;;;;;;;0.82;0.82;;;;;;;32.68;63.41;98665.28;5047006;28;20197;-67
2023/08/05 08:38:55;;;;;;;0.95;0.93;;;;;;;32.96;63.29;98665.03;5052832;28;20204;-67
2023/08/05 08:41:22;;;;;;;1.88;1.02;;;;;;;32.91;62.53;98667.50;5045604;28;20197;-67
2023/08/05 08:43:50;;;;;;;0.68;0.68;;;;;;;32.69;62.86;98652.81;5039095;28;20201;-67
2023/08/05 08:46:19;;;;;;;0.80;0.80;;;;;;;32.64;62.62;98649.94;5036961;28;20201;-67
2023/08/05 08:48:48;;;;;;;0.85;0.85;;;;;;;32.51;63.96;98650.75;5038810;28;20724;-67
2023/08/05 08:51:18;;;;;;;1.38;1.20;;;;;;;32.68;61.89;98640.56;5044941;28;20278;-68
2023/08/05 08:53:48;;;;;;;1.20;1.20;;;;;;;32.38;61.88;98634.81;5044440;28;20217;-67
2023/08/05 08:56:14;;;;;;;0.93;0.90;;;;;;;32.55;60.79;98641.38;5047339;28;20209;-67
2023/08/05 08:58:41;;;;;;;0.95;0.95;;;;;;;32.52;61.57;98630.34;5052470;28;20200;-67
2023/08/05 09:01:08;;;;;;;1.00;1.00;;;;;;;32.51;61.02;98623.38;5051627;28;20204;-67
2023/08/05 09:03:36;;;;;;;0.85;0.85;;;;;;;32.61;61.38;98618.50;5043737;28;20192;-67
2023/08/05 09:06:03;;;;;;;1.95;1.27;;;;;;;32.65;60.35;98617.09;5045335;28;20211;-67
2023/08/05 09:08:31;;;;;;;1.00;0.82;;;;;;;32.45;60.62;98610.94;5044671;28;20192;-67
2023/08/05 09:11:00;;;;;;;0.80;0.80;;;;;;;32.47;61.13;98617.69;5039957;28;20235;-67
2023/08/05 09:13:27;;;;;;;0.80;0.80;;;;;;;32.66;60.13;98600.97;5042176;28;20220;-66
2023/08/05 09:15:55;;;;;;;1.15;1.15;;;;;;;32.79;59.87;98609.94;5046769;28;20207;-67
2023/08/05 09:18:22;;;;;;;0.90;0.90;;;;;;;32.80;58.81;98611.56;5049465;28;20232;-67
2023/08/05 09:20:51;;;;;;;1.13;1.08;;;;;;;32.73;59.60;98598.31;5052128;28;20200;-66
2023/08/05 09:23:17;;;;;;;0.75;0.75;;;;;;;32.99;60.77;98608.84;5048726;28;20287;-67
2023/08/05 09:25:48;;;;;;;1.23;1.13;;;;;;;32.97;58.57;98587.00;5040462;28;20581;-67
2023/08/05 09:28:30;;;;;;;0.80;0.80;;;;;;;33.09;57.32;98595.97;5047020;28;20216;-67
2023/08/05 09:31:12;;;;;;;1.23;1.17;;;;;;;33.14;58.08;98601.50;5047408;28;20240;-67
2023/08/05 09:33:41;;;;;;;0.70;0.70;;;;;;;33.33;57.49;98601.63;5046628;28;20574;-67
2023/08/05 09:36:12;;;;;;;0.80;0.80;;;;;;;33.62;57.66;98585.16;5049556;28;20676;-66
2023/08/05 09:38:40;;;;;;;0.90;0.73;;;;;;;33.92;55.64;98566.78;5049165;28;20197;-67
2023/08/05 09:41:07;;;;;;;0.90;0.90;;;;;;;34.05;54.59;98579.97;5048908;28;20703;-67
2023/08/05 09:43:40;;;;;;;0.80;0.80;;;;;;;33.89;53.67;98581.31;5048424;28;20292;-67
2023/08/05 09:46:11;;;;;;;1.27;1.17;;;;;;;33.90;55.55;98569.63;5047841;28;20202;-66
2023/08/05 09:48:42;;;;;;;0.88;0.80;;;;;;;34.06;53.20;98573.59;5044447;28;20203;-67
2023/08/05 09:51:12;;;;;;;1.90;1.38;;;;;;;34.14;53.21;98576.88;5044935;28;20212;-67
2023/08/05 09:53:42;;;;;;;1.30;0.95;;;;;;;34.13;51.66;98564.59;5047324;28;20224;-67
2023/08/05 09:56:10;;;;;;;1.08;1.02;;;;;;;34.12;53.05;98565.59;5040973;28;20319;-67
2023/08/05 09:58:38;;;;;;;0.70;0.70;;;;;;;34.19;52.55;98566.38;5047230;28;20201;-67
2023/08/05 10:01:07;;;;;;;1.00;1.00;;;;;;;34.26;50.99;98572.47;5042097;28;20228;-67
2023/08/05 10:03:38;;;;;;;1.17;1.15;;;;;;;34.21;51.39;98569.66;5048575;28;20246;-67
2023/08/05 10:06:07;;;;;;;0.90;0.90;;;;;;;34.06;50.38;98560.31;5048969;28;20283;-67
2023/08/05 10:08:35;;;;;;;0.80;0.80;;;;;;;34.09;49.91;98555.38;5042693;28;20200;-67
2023/08/05 10:11:03;;;;;;;2.45;1.00;;;;;;;34.22;50.69;98552.63;5045889;28;20212;-67
2023/08/05 10:13:33;;;;;;;1.00;0.90;;;;;;;34.24;47.97;98539.94;5041466;28;20232;-67
2023/08/05 10:16:01;;;;;;;1.20;1.10;;;;;;;34.23;49.51;98525.00;5048501;28;20192;-67
2023/08/05 10:18:29;;;;;;;1.13;1.13;;;;;;;34.34;49.52;98520.00;5045330;28;20288;-66
2023/08/05 10:20:55;;;;;;;0.80;0.80;;;;;;;34.58;48.02;98537.75;5046974;28;20246;-67
2023/08/05 10:23:26;;;;;;;0.95;0.95;;;;;;;34.54;47.07;98510.75;5050165;28;20189;-67
2023/08/05 10:26:00;;;;;;;1.42;0.82;;;;;;;34.65;46.07;98517.25;5041614;28;20677;-67
2023/08/05 10:28:42;;;;;;;1.08;1.05;;;;;;;34.54;45.90;98516.09;5045864;28;20197;-67
2023/08/05 10:31:29;;;;;;;0.90;0.90;;;;;;;34.63;46.60;98514.00;5035013;28;20236;-66
2023/08/05 10:34:18;;;;;;;0.70;0.70;;;;;;;34.59;44.79;98518.91;5045425;28;20216;-67
2023/08/05 10:36:47;;;;;;;0.88;0.55;;;;;;;34.38;45.44;98511.34;5045133;28;20562;-67
2023/08/05 10:39:42;;;;;;;0.60;0.60;;;;;;;34.63;44.13;98511.34;5042740;28;20262;-68
2023/08/05 10:42:19;;;;;;;0.80;0.80;;;;;;;34.57;41.18;98515.69;5033712;28;20435;-65
2023/08/05 10:44:49;;;;;;;0.70;0.70;;;;;;;34.83;42.47;98511.13;5043326;28;20296;-67
2023/08/05 10:47:21;;;;;;;0.63;0.63;;;;;;;35.14;43.05;98495.78;5036632;28;20220;-67
2023/08/05 10:49:49;;;;;;;0.80;0.80;;;;;;;35.05;44.00;98491.78;5044016;28;20288;-67
2023/08/05 10:52:17;;;;;;;0.65;0.65;;;;;;;34.84;45.16;98481.59;5037888;28;20205;-67
2023/08/05 10:54:44;;;;;;;0.47;0.47;;;;;;;34.86;42.57;98486.69;5040457;28;20219;-66
2023/08/05 10:57:47;;;;;;;0.63;0.63;;;;;;;34.90;41.31;98487.88;5039178;28;20197;-66
2023/08/05 11:00:31;;;;;;;0.77;0.68;;;;;;;34.90;43.52;98480.69;5042588;28;20668;-67
2023/08/05 11:03:26;;;;;;;0.68;0.68;;;;;;;34.93;42.22;98482.09;5037897;28;20209;-67
2023/08/05 11:05:55;;;;;;;0.77;0.57;;;;;;;34.99;42.93;98478.53;5039962;28;20279;-66
2023/08/05 11:08:23;;;;;;;0.57;0.57;;;;;;;35.05;42.16;98473.13;5048604;28;20660;-66
2023/08/05 11:10:50;;;;;;;0.82;0.82;;;;;;;35.13;44.06;98466.69;5042204;28;20197;-66
2023/08/05 11:13:17;;;;;;;0.57;0.57;;;;;;;35.24;42.40;98464.09;5036516;28;20711;-66
2023/08/05 11:15:59;;;;;;;1.88;0.85;;;;;;;35.15;42.30;98468.09;5039532;28;20189;-67
2023/08/05 11:18:27;;;;;;;0.77;0.77;;;;;;;35.24;41.85;98453.41;5038755;28;20209;-66
2023/08/05 11:20:55;;;;;;;0.70;0.60;;;;;;;35.35;40.68;98448.34;5044863;28;20215;-66
2023/08/05 11:23:22;;;;;;;0.70;0.70;;;;;;;35.34;42.23;98431.53;5037101;28;20571;-66
2023/08/05 11:25:48;;;;;;;1.50;0.63;;;;;;;35.49;39.50;98447.09;5044456;28;20193;-66
2023/08/05 11:28:15;;;;;;;0.50;0.50;;;;;;;35.40;39.21;98435.13;5041140;28;20204;-66
2023/08/05 11:30:42;;;;;;;0.85;0.70;;;;;;;35.38;40.66;98437.25;5040092;28;20267;-67
2023/08/05 11:33:09;;;;;;;0.90;0.75;;;;;;;35.42;39.23;98425.88;5034204;28;20589;-67
2023/08/05 11:35:44;;;;;;;0.70;0.70;;;;;;;35.30;40.18;98423.19;5043573;28;20685;-66